createdAt,value
2024-02-20T00:00:13.750Z,101863.34
2024-02-20T00:02:44.484Z,101862.60
2024-02-20T00:05:12.216Z,101864.36
2024-02-20T00:07:40.511Z,101863.67
2024-02-20T00:10:14.203Z,101860.17
2024-02-20T00:12:44.036Z,101855.33
2024-02-20T00:15:11.086Z,101849.37
2024-02-20T00:17:39.159Z,101850.02
2024-02-20T00:20:07.583Z,101848.27
2024-02-20T00:22:35.471Z,101849.20
2024-02-20T00:25:02.796Z,101842.50
2024-02-20T00:27:32.160Z,101836.77
2024-02-20T00:29:59.400Z,101834.48
2024-02-20T00:32:26.494Z,101833.06
2024-02-20T00:34:54.061Z,101830.06
2024-02-20T00:37:21.905Z,101826.11
2024-02-20T00:39:49.343Z,101818.99
2024-02-20T00:42:16.511Z,101821.00
2024-02-20T00:44:43.606Z,101821.56
2024-02-20T00:47:11.489Z,101818.09
2024-02-20T00:49:42.111Z,101814.71
2024-02-20T00:52:09.435Z,101807.85
2024-02-20T00:54:42.637Z,101805.89
2024-02-20T00:57:11.607Z,101806.10
2024-02-20T00:59:39.709Z,101807.21
2024-02-20T01:02:13.018Z,101808.16
2024-02-20T01:04:43.828Z,101803.52
2024-02-20T01:07:11.852Z,101799.34
2024-02-20T01:09:39.171Z,101795.98
2024-02-20T01:12:06.986Z,101796.21
2024-02-20T01:14:34.831Z,101788.48
2024-02-20T01:17:02.343Z,101789.14
2024-02-20T01:19:29.672Z,101781.58
2024-02-20T01:21:57.157Z,101779.84
2024-02-20T01:24:24.807Z,101777.15
2024-02-20T01:26:51.850Z,101773.24
2024-02-20T01:29:23.506Z,101765.44
2024-02-20T01:31:51.182Z,101758.61
2024-02-20T01:34:18.539Z,101752.64
2024-02-20T01:36:46.119Z,101748.64
2024-02-20T01:39:13.109Z,101745.95
2024-02-20T01:41:40.038Z,101744.48
2024-02-20T01:44:07.578Z,101740.13
2024-02-20T01:46:35.097Z,101736.17
2024-02-20T01:49:03.072Z,101728.50
2024-02-20T01:51:34.117Z,101723.95
2024-02-20T01:54:01.223Z,101713.77
2024-02-20T01:56:28.872Z,101710.04
2024-02-20T01:58:56.311Z,101713.09
2024-02-20T02:01:26.593Z,101712.40
2024-02-20T02:03:54.078Z,101709.55
2024-02-20T02:06:31.268Z,101711.63
2024-02-20T02:08:58.543Z,101711.91
2024-02-20T02:11:25.833Z,101710.48
2024-02-20T02:13:53.084Z,101710.34
2024-02-20T02:16:20.210Z,101706.48
2024-02-20T02:18:47.287Z,101705.38
2024-02-20T02:21:14.676Z,101701.94
2024-02-20T02:23:41.974Z,101705.44
2024-02-20T02:26:12.401Z,101703.73
2024-02-20T02:28:40.003Z,101706.70
2024-02-20T02:31:07.382Z,101702.91
2024-02-20T02:33:34.794Z,101703.89
2024-02-20T02:36:02.943Z,101700.06
2024-02-20T02:38:30.166Z,101694.79
2024-02-20T02:40:57.177Z,101694.42
2024-02-20T02:43:24.243Z,101691.01
2024-02-20T02:45:51.609Z,101688.98
2024-02-20T02:48:19.143Z,101684.35
2024-02-20T02:50:46.273Z,101686.37
2024-02-20T02:53:13.554Z,101681.70
2024-02-20T02:55:40.752Z,101679.02
2024-02-20T02:58:08.057Z,101676.59
2024-02-20T03:00:35.941Z,101675.25
2024-02-20T03:03:02.975Z,101676.38
2024-02-20T03:05:30.109Z,101675.73
2024-02-20T03:07:57.762Z,101680.44
2024-02-20T03:10:25.916Z,101682.18
2024-02-20T03:12:56.749Z,101679.49
2024-02-20T03:15:24.321Z,101677.76
2024-02-20T03:17:51.563Z,101675.80
2024-02-20T03:20:18.751Z,101674.73
2024-02-20T03:22:47.056Z,101673.10
2024-02-20T03:25:17.353Z,101671.90
2024-02-20T03:27:44.792Z,101671.95
2024-02-20T03:30:12.622Z,101667.34
2024-02-20T03:32:40.350Z,101667.02
2024-02-20T03:35:12.453Z,101670.67
2024-02-20T03:37:39.961Z,101669.52
2024-02-20T03:40:07.700Z,101669.67
2024-02-20T03:42:34.856Z,101672.54
2024-02-20T03:45:02.358Z,101669.89
2024-02-20T03:47:29.518Z,101670.09
2024-02-20T03:49:56.919Z,101667.09
2024-02-20T03:52:24.306Z,101666.09
2024-02-20T03:54:51.832Z,101657.67
2024-02-20T03:57:19.226Z,101655.84
2024-02-20T03:59:46.258Z,101655.41
2024-02-20T04:02:14.085Z,101654.79
2024-02-20T04:04:44.362Z,101654.41
2024-02-20T04:07:12.154Z,101651.98
2024-02-20T04:09:39.384Z,101650.61
2024-02-20T04:12:06.778Z,101644.54
2024-02-20T04:14:33.872Z,101646.48
2024-02-20T04:17:00.860Z,101646.08
2024-02-20T04:19:28.127Z,101647.98
2024-02-20T04:21:55.270Z,101652.14
2024-02-20T04:24:22.350Z,101650.55
2024-02-20T04:26:49.426Z,101644.70
2024-02-20T04:29:16.475Z,101646.33
2024-02-20T04:31:43.873Z,101647.39
2024-02-20T04:34:10.983Z,101653.30
2024-02-20T04:36:38.246Z,101659.96
2024-02-20T04:39:05.288Z,101660.34
2024-02-20T04:41:34.575Z,101658.76
2024-02-20T04:44:01.619Z,101663.04
2024-02-20T04:46:30.781Z,101654.95
2024-02-20T04:48:58.444Z,101655.86
2024-02-20T04:51:25.864Z,101658.31
2024-02-20T04:53:56.060Z,101657.23
2024-02-20T04:56:23.148Z,101660.09
2024-02-20T04:58:50.329Z,101666.19
2024-02-20T05:01:18.920Z,101668.20
2024-02-20T05:03:48.064Z,101666.05
2024-02-20T05:06:15.263Z,101668.05
2024-02-20T05:08:42.339Z,101670.77
2024-02-20T05:11:09.981Z,101669.97
2024-02-20T05:13:37.287Z,101669.72
2024-02-20T05:16:05.072Z,101668.38
2024-02-20T05:18:32.752Z,101668.61
2024-02-20T05:21:00.828Z,101665.02
2024-02-20T05:23:31.532Z,101667.20
2024-02-20T05:25:58.466Z,101662.92
2024-02-20T05:28:25.863Z,101662.14
2024-02-20T05:30:52.929Z,101661.27
2024-02-20T05:33:20.141Z,101661.70
2024-02-20T05:35:47.583Z,101663.06
2024-02-20T05:38:15.474Z,101659.55
2024-02-20T05:40:42.819Z,101661.02
2024-02-20T05:43:09.948Z,101653.63
2024-02-20T05:45:37.017Z,101650.94
2024-02-20T05:48:04.563Z,101647.48
2024-02-20T05:50:33.119Z,101652.70
2024-02-20T05:53:00.379Z,101654.09
2024-02-20T05:55:27.455Z,101653.48
2024-02-20T05:57:54.456Z,101658.19
2024-02-20T06:00:21.630Z,101658.51
2024-02-20T06:02:48.636Z,101657.73
2024-02-20T06:05:16.133Z,101661.69
2024-02-20T06:07:43.389Z,101662.33
2024-02-20T06:10:10.770Z,101660.57
2024-02-20T06:12:37.856Z,101663.41
2024-02-20T06:15:07.304Z,101658.55
2024-02-20T06:17:34.714Z,101654.96
2024-02-20T06:20:02.181Z,101651.64
2024-02-20T06:22:29.561Z,101652.93
2024-02-20T06:24:56.769Z,101650.88
2024-02-20T06:27:23.873Z,101653.40
2024-02-20T06:29:50.998Z,101657.30
2024-02-20T06:32:17.974Z,101660.16
2024-02-20T06:34:46.084Z,101654.52
2024-02-20T06:37:14.953Z,101659.22
2024-02-20T06:39:42.330Z,101658.48
2024-02-20T06:42:09.362Z,101661.59
2024-02-20T06:44:36.594Z,101661.21
2024-02-20T06:47:04.669Z,101658.20
2024-02-20T06:49:31.705Z,101660.84
2024-02-20T06:51:58.790Z,101664.95
2024-02-20T06:54:26.558Z,101666.26
2024-02-20T06:56:53.654Z,101665.80
2024-02-20T06:59:21.006Z,101666.70
2024-02-20T07:01:48.219Z,101662.36
2024-02-20T07:04:16.009Z,101666.98
2024-02-20T07:06:43.275Z,101668.45
2024-02-20T07:09:10.545Z,101665.17
2024-02-20T07:11:37.746Z,101662.10
2024-02-20T07:14:04.858Z,101659.71
2024-02-20T07:16:31.942Z,101658.54
2024-02-20T07:18:59.319Z,101661.38
2024-02-20T07:21:26.472Z,101665.98
2024-02-20T07:23:53.549Z,101666.61
2024-02-20T07:26:20.556Z,101671.36
2024-02-20T07:28:47.675Z,101672.73
2024-02-20T07:31:22.298Z,101675.45
2024-02-20T07:33:57.426Z,101673.59
2024-02-20T07:36:31.440Z,101672.84
2024-02-20T07:38:58.756Z,101672.34
2024-02-20T07:41:25.969Z,101672.23
2024-02-20T07:43:53.070Z,101669.64
2024-02-20T07:46:20.623Z,101671.64
2024-02-20T07:48:48.521Z,101673.11
2024-02-20T07:51:17.950Z,101674.08
2024-02-20T07:53:44.987Z,101673.02
2024-02-20T07:56:14.161Z,101676.77
2024-02-20T07:58:45.291Z,101673.66
2024-02-20T08:01:12.926Z,101680.55
2024-02-20T08:03:40.546Z,101678.71
2024-02-20T08:06:07.933Z,101678.70
2024-02-20T08:08:35.120Z,101670.05
2024-02-20T08:11:02.486Z,101665.26
2024-02-20T08:13:30.075Z,101665.94
2024-02-20T08:16:00.387Z,101667.52
2024-02-20T08:18:27.706Z,101673.95
2024-02-20T08:20:55.463Z,101679.84
2024-02-20T08:23:22.821Z,101677.87
2024-02-20T08:25:50.347Z,101679.88
2024-02-20T08:28:18.449Z,101675.83
2024-02-20T08:30:47.124Z,101677.34
2024-02-20T08:33:15.923Z,101671.95
2024-02-20T08:35:44.657Z,101672.25
2024-02-20T08:38:11.898Z,101670.68
2024-02-20T08:40:39.211Z,101666.05
2024-02-20T08:43:06.792Z,101661.28
2024-02-20T08:45:34.354Z,101661.61
2024-02-20T08:48:02.916Z,101658.08
2024-02-20T08:50:30.134Z,101658.72
2024-02-20T08:52:57.651Z,101663.64
2024-02-20T08:55:25.038Z,101662.66
2024-02-20T08:57:52.154Z,101660.95
2024-02-20T09:00:23.390Z,101658.74
2024-02-20T09:02:50.690Z,101651.61
2024-02-20T09:05:18.050Z,101649.71
2024-02-20T09:07:45.501Z,101647.23
2024-02-20T09:10:13.207Z,101648.77
2024-02-20T09:12:40.297Z,101652.52
2024-02-20T09:15:08.105Z,101648.45
2024-02-20T09:17:35.309Z,101647.35
2024-02-20T09:20:03.539Z,101644.14
2024-02-20T09:22:30.967Z,101644.66
2024-02-20T09:24:58.229Z,101641.02
2024-02-20T09:27:25.753Z,101633.82
2024-02-20T09:29:52.880Z,101634.52
2024-02-20T09:32:20.150Z,101634.58
2024-02-20T09:34:47.382Z,101637.75
2024-02-20T09:37:14.851Z,101638.32
2024-02-20T09:39:41.926Z,101635.48
2024-02-20T09:42:19.491Z,101635.15
2024-02-20T09:44:48.990Z,101631.77
2024-02-20T09:47:17.575Z,101626.15
2024-02-20T09:49:45.295Z,101627.16
2024-02-20T09:52:13.934Z,101625.33
2024-02-20T09:54:45.346Z,101626.85
2024-02-20T09:57:16.769Z,101626.21
2024-02-20T09:59:46.189Z,101619.74
2024-02-20T10:02:20.796Z,101613.29
2024-02-20T10:04:48.584Z,101608.85
2024-02-20T10:07:19.475Z,101611.35
2024-02-20T10:09:47.142Z,101604.38
2024-02-20T10:12:22.853Z,101602.35
2024-02-20T10:14:50.794Z,101604.14
2024-02-20T10:17:19.833Z,101600.54
2024-02-20T10:19:47.004Z,101592.27
2024-02-20T10:22:24.961Z,101582.98
2024-02-20T10:24:52.046Z,101578.11
2024-02-20T10:27:19.594Z,101572.64
2024-02-20T10:29:47.049Z,101571.00
2024-02-20T10:32:14.930Z,101568.63
2024-02-20T10:34:42.149Z,101565.48
2024-02-20T10:37:09.759Z,101559.36
2024-02-20T10:39:39.498Z,101552.57
2024-02-20T10:42:09.865Z,101549.57
2024-02-20T10:44:40.294Z,101547.05
2024-02-20T10:47:08.439Z,101545.74
2024-02-20T10:49:37.499Z,101547.75
2024-02-20T10:52:05.915Z,101545.11
2024-02-20T10:54:42.878Z,101538.39
2024-02-20T10:57:15.287Z,101533.58
2024-02-20T10:59:45.248Z,101533.73
2024-02-20T11:02:13.299Z,101533.33
2024-02-20T11:04:41.732Z,101531.54
2024-02-20T11:07:09.603Z,101528.66
2024-02-20T11:09:37.502Z,101524.08
2024-02-20T11:12:10.260Z,101524.47
2024-02-20T11:14:37.894Z,101524.63
2024-02-20T11:17:24.529Z,101516.33
2024-02-20T11:20:10.390Z,101508.16
2024-02-20T11:22:37.474Z,101503.27
2024-02-20T11:25:28.420Z,101499.09
2024-02-20T11:27:56.982Z,101496.83
2024-02-20T11:30:28.163Z,101496.83
2024-02-20T11:32:56.985Z,101492.13
2024-02-20T11:35:36.789Z,101487.80
2024-02-20T11:38:07.746Z,101485.35
2024-02-20T11:40:35.619Z,101480.69
2024-02-20T11:43:06.192Z,101475.89
2024-02-20T11:45:36.205Z,101478.19
2024-02-20T11:48:12.464Z,101470.84
2024-02-20T11:50:42.138Z,101466.29
2024-02-20T11:53:19.318Z,101455.72
2024-02-20T11:55:55.699Z,101448.52
2024-02-20T11:58:27.645Z,101444.09
2024-02-20T12:01:07.369Z,101439.77
2024-02-20T12:03:37.668Z,101431.90
2024-02-20T12:06:10.178Z,101429.70
2024-02-20T12:08:43.881Z,101422.80
2024-02-20T12:11:21.815Z,101421.13
2024-02-20T12:13:53.478Z,101416.76
2024-02-20T12:16:24.326Z,101416.20
2024-02-20T12:18:54.067Z,101415.48
2024-02-20T12:21:28.683Z,101404.39
2024-02-20T12:23:57.767Z,101403.96
2024-02-20T12:26:26.177Z,101401.54
2024-02-20T12:28:53.884Z,101394.67
2024-02-20T12:31:25.688Z,101388.62
2024-02-20T12:33:53.749Z,101387.25
2024-02-20T12:36:21.351Z,101380.95
2024-02-20T12:38:48.837Z,101379.94
2024-02-20T12:41:17.032Z,101379.94
2024-02-20T12:43:44.446Z,101377.78
2024-02-20T12:46:11.919Z,101373.34
2024-02-20T12:48:39.706Z,101369.36
2024-02-20T12:51:06.809Z,101370.08
2024-02-20T12:53:36.471Z,101368.13
2024-02-20T12:56:05.702Z,101366.11
2024-02-20T12:58:33.474Z,101359.87
2024-02-20T13:01:00.769Z,101364.26
2024-02-20T13:03:28.008Z,101363.98
2024-02-20T13:05:55.427Z,101363.44
2024-02-20T13:08:22.857Z,101362.53
2024-02-20T13:10:50.334Z,101360.73
2024-02-20T13:13:18.814Z,101357.13
2024-02-20T13:15:45.953Z,101352.31
2024-02-20T13:18:13.356Z,101350.13
2024-02-20T13:20:40.361Z,101345.63
2024-02-20T13:23:08.725Z,101344.26
2024-02-20T13:25:36.117Z,101342.72
2024-02-20T13:28:05.241Z,101339.88
2024-02-20T13:43:16.705Z,101329.20
2024-02-20T13:45:49.857Z,101328.42
2024-02-20T13:48:17.836Z,101330.38
2024-02-20T13:50:48.524Z,101327.44
2024-02-20T13:53:17.598Z,101325.67
2024-02-20T13:55:45.741Z,101325.00
2024-02-20T13:58:13.122Z,101315.45
2024-02-20T14:00:41.924Z,101315.67
2024-02-20T14:03:09.302Z,101313.67
2024-02-20T14:05:36.738Z,101316.45
2024-02-20T14:08:04.478Z,101315.55
2024-02-20T14:10:32.149Z,101314.09
2024-02-20T14:13:02.441Z,101313.50
2024-02-20T14:15:29.936Z,101315.73
2024-02-20T14:17:57.075Z,101318.04
2024-02-20T14:20:25.002Z,101315.60
2024-02-20T14:22:53.195Z,101318.55
2024-02-20T14:25:20.391Z,101316.25
2024-02-20T14:27:47.848Z,101315.84
2024-02-20T14:30:15.885Z,101315.51
2024-02-20T14:32:43.294Z,101313.61
2024-02-20T14:35:12.264Z,101315.45
2024-02-20T14:37:39.456Z,101313.66
2024-02-20T14:40:08.672Z,101311.61
2024-02-20T14:42:35.854Z,101308.76
2024-02-20T14:45:03.663Z,101308.02
2024-02-20T14:47:30.835Z,101302.01
2024-02-20T14:49:58.031Z,101299.41
2024-02-20T14:52:25.068Z,101296.08
2024-02-20T14:54:53.802Z,101297.19
2024-02-20T14:57:24.343Z,101291.80
2024-02-20T14:59:51.821Z,101289.20
2024-02-20T15:02:20.214Z,101291.46
2024-02-20T15:04:47.956Z,101287.41
2024-02-20T15:07:17.751Z,101288.04
2024-02-20T15:09:44.975Z,101290.73
2024-02-20T15:12:21.044Z,101292.67
2024-02-20T15:14:51.677Z,101292.48
2024-02-20T15:17:21.480Z,101295.35
2024-02-20T15:19:52.367Z,101290.87
2024-02-20T15:22:19.742Z,101289.60
2024-02-20T15:24:47.098Z,101289.14
2024-02-20T15:27:14.328Z,101290.10
2024-02-20T15:29:41.695Z,101285.20
2024-02-20T15:32:09.040Z,101282.50
2024-02-20T15:34:36.896Z,101283.23
2024-02-20T15:37:04.483Z,101281.08
2024-02-20T15:39:31.619Z,101282.10
2024-02-20T15:41:59.394Z,101285.34
2024-02-20T15:44:26.799Z,101282.86
2024-02-20T15:46:55.361Z,101284.02
2024-02-20T15:49:26.276Z,101284.05
2024-02-20T15:51:53.715Z,101289.23
2024-02-20T15:54:20.853Z,101287.95
2024-02-20T15:56:48.130Z,101293.27
2024-02-20T15:59:15.276Z,101295.52
2024-02-20T16:01:43.778Z,101293.01
2024-02-20T16:04:11.029Z,101294.16
2024-02-20T16:06:39.235Z,101300.75
2024-02-20T16:09:15.994Z,101303.84
2024-02-20T16:11:43.649Z,101305.55
2024-02-20T16:14:13.811Z,101308.77
2024-02-20T16:16:41.035Z,101311.84
2024-02-20T16:19:08.309Z,101314.59
2024-02-20T16:21:35.912Z,101320.69
2024-02-20T16:24:03.714Z,101321.44
2024-02-20T16:26:31.000Z,101325.81
2024-02-20T16:28:58.012Z,101328.42
2024-02-20T16:31:25.194Z,101329.51
2024-02-20T16:33:52.538Z,101327.88
2024-02-20T16:36:19.579Z,101325.00
2024-02-20T16:38:47.201Z,101327.11
2024-02-20T16:41:14.318Z,101329.83
2024-02-20T16:43:41.486Z,101330.67
2024-02-20T16:46:08.947Z,101334.53
2024-02-20T16:48:37.168Z,101335.91
2024-02-20T16:51:04.876Z,101337.17
2024-02-20T16:53:33.195Z,101338.11
2024-02-20T16:56:01.205Z,101339.95
2024-02-20T16:58:28.285Z,101345.88
2024-02-20T17:00:55.580Z,101347.26
2024-02-20T17:03:22.974Z,101351.80
2024-02-20T17:05:50.338Z,101351.32
2024-02-20T17:08:17.714Z,101349.63
2024-02-20T17:10:46.188Z,101353.80
2024-02-20T17:13:13.488Z,101357.50
2024-02-20T17:15:40.697Z,101354.44
2024-02-20T17:18:08.059Z,101356.45
2024-02-20T17:20:35.291Z,101355.92
2024-02-20T17:23:02.460Z,101351.98
2024-02-20T17:25:30.564Z,101361.19
2024-02-20T17:27:57.749Z,101363.61
2024-02-20T17:30:24.910Z,101366.62
2024-02-20T17:32:54.925Z,101366.34
2024-02-20T17:35:24.150Z,101367.77
2024-02-20T17:37:51.416Z,101367.82
2024-02-20T17:40:18.994Z,101368.66
2024-02-20T17:42:46.188Z,101366.58
2024-02-20T17:45:18.055Z,101367.35
2024-02-20T17:47:45.101Z,101369.95
2024-02-20T17:50:12.481Z,101373.27
2024-02-20T17:52:40.846Z,101375.83
2024-02-20T17:55:08.893Z,101376.52
2024-02-20T17:57:36.153Z,101381.32
2024-02-20T18:00:03.775Z,101381.20
2024-02-20T18:02:38.789Z,101386.31
2024-02-20T18:05:07.711Z,101384.07
2024-02-20T18:07:37.653Z,101381.16
2024-02-20T18:10:07.167Z,101384.85
2024-02-20T18:12:34.270Z,101383.39
2024-02-20T18:15:02.208Z,101382.65
2024-02-20T18:17:32.391Z,101381.96
2024-02-20T18:19:59.653Z,101386.83
2024-02-20T18:22:26.771Z,101388.41
2024-02-20T18:24:54.710Z,101392.16
2024-02-20T18:27:22.185Z,101390.60
2024-02-20T18:29:49.291Z,101389.59
2024-02-20T18:32:16.522Z,101386.14
2024-02-20T18:48:35.127Z,101391.45
2024-02-20T18:51:02.698Z,101391.80
2024-02-20T18:53:29.924Z,101392.14
2024-02-20T18:55:57.478Z,101395.47
2024-02-20T18:58:24.963Z,101396.23
2024-02-20T19:00:55.718Z,101399.75
2024-02-20T19:03:22.881Z,101399.55
2024-02-20T19:05:50.838Z,101400.98
2024-02-20T19:08:18.125Z,101401.73
2024-02-20T19:10:45.175Z,101397.27
2024-02-20T19:13:12.186Z,101395.86
2024-02-20T19:15:39.223Z,101391.86
2024-02-20T19:18:06.805Z,101390.48
2024-02-20T19:20:34.025Z,101396.23
2024-02-20T19:23:01.261Z,101394.61
2024-02-20T19:25:28.334Z,101399.34
2024-02-20T19:27:55.337Z,101399.88
2024-02-20T19:30:22.433Z,101399.30
2024-02-20T19:32:53.396Z,101395.31
2024-02-20T19:35:21.616Z,101394.88
2024-02-20T19:37:48.929Z,101395.23
2024-02-20T19:40:18.160Z,101397.55
2024-02-20T19:42:45.360Z,101401.30
2024-02-20T19:45:12.625Z,101402.48
2024-02-20T19:47:39.840Z,101403.27
2024-02-20T19:50:07.291Z,101397.82
2024-02-20T19:52:34.433Z,101394.05
2024-02-20T19:55:01.540Z,101401.72
2024-02-20T19:57:28.521Z,101398.66
2024-02-20T19:59:55.663Z,101399.75
2024-02-20T20:02:23.570Z,101400.30
2024-02-20T20:04:50.774Z,101405.61
2024-02-20T20:07:17.854Z,101404.02
2024-02-20T20:09:44.953Z,101405.02
2024-02-20T20:12:12.124Z,101407.30
2024-02-20T20:14:39.196Z,101407.18
2024-02-20T20:17:06.776Z,101406.19
2024-02-20T20:19:37.611Z,101401.92
2024-02-20T20:22:04.992Z,101407.20
2024-02-20T20:24:32.054Z,101404.38
2024-02-20T20:26:59.167Z,101407.04
2024-02-20T20:29:26.472Z,101407.08
2024-02-20T20:31:53.522Z,101408.77
2024-02-20T20:34:20.858Z,101410.08
2024-02-20T20:36:48.170Z,101411.14
2024-02-20T20:39:15.234Z,101410.04
2024-02-20T20:41:42.388Z,101414.00
2024-02-20T20:44:09.863Z,101413.09
2024-02-20T20:46:36.915Z,101412.77
2024-02-20T20:49:05.537Z,101408.65
2024-02-20T20:51:33.023Z,101407.96
2024-02-20T20:54:00.079Z,101406.75
2024-02-20T20:56:27.166Z,101402.48
2024-02-20T20:58:56.675Z,101398.83
2024-02-20T21:01:23.804Z,101399.57
2024-02-20T21:03:53.677Z,101398.50
2024-02-20T21:06:20.919Z,101401.58
2024-02-20T21:08:48.304Z,101403.85
2024-02-20T21:11:15.396Z,101411.94
2024-02-20T21:13:44.848Z,101414.39
2024-02-20T21:16:16.541Z,101416.55
2024-02-20T21:18:43.843Z,101419.61
2024-02-20T21:21:11.506Z,101417.50
2024-02-20T21:23:38.677Z,101412.79
2024-02-20T21:26:10.027Z,101408.29
2024-02-20T21:28:40.896Z,101404.66
2024-02-20T21:31:08.148Z,101403.14
2024-02-20T21:33:35.537Z,101400.23
2024-02-20T21:36:06.151Z,101397.70
2024-02-20T21:38:34.420Z,101397.31
2024-02-20T21:41:03.203Z,101395.09
2024-02-20T21:43:30.555Z,101395.91
2024-02-20T21:45:57.793Z,101395.89
2024-02-20T21:48:25.034Z,101391.23
2024-02-20T21:50:52.063Z,101388.10
2024-02-20T21:53:19.023Z,101385.09
2024-02-20T21:55:46.337Z,101384.22
2024-02-20T21:58:13.742Z,101382.04
2024-02-20T22:00:40.975Z,101379.81
2024-02-20T22:03:10.023Z,101375.36
2024-02-20T22:05:38.434Z,101375.81
2024-02-20T22:08:05.912Z,101376.27
2024-02-20T22:10:33.246Z,101374.92
2024-02-20T22:13:00.450Z,101374.06
2024-02-20T22:15:27.871Z,101372.70
2024-02-20T22:17:55.079Z,101372.58
2024-02-20T22:20:22.262Z,101371.46
2024-02-20T22:22:49.723Z,101372.52
2024-02-20T22:25:16.875Z,101376.10
2024-02-20T22:27:44.225Z,101370.98
2024-02-20T22:30:13.440Z,101369.33
2024-02-20T22:32:41.194Z,101365.56
2024-02-20T22:35:08.636Z,101363.77
2024-02-20T22:37:35.876Z,101360.39
2024-02-20T22:40:02.881Z,101359.62
2024-02-20T22:42:29.892Z,101361.48
2024-02-20T22:44:56.969Z,101366.27
2024-02-20T22:47:24.458Z,101374.50
2024-02-20T22:49:51.802Z,101375.99
2024-02-20T22:52:18.805Z,101376.88
2024-02-20T22:54:49.572Z,101377.36
2024-02-20T22:57:16.779Z,101374.32
2024-02-20T22:59:51.121Z,101374.85
2024-02-20T23:02:18.769Z,101377.67
2024-02-20T23:04:46.390Z,101376.00
2024-02-20T23:07:13.925Z,101372.05
2024-02-20T23:09:42.213Z,101368.41
2024-02-20T23:12:13.965Z,101364.45
2024-02-20T23:14:42.448Z,101365.83
2024-02-20T23:17:12.399Z,101362.58
2024-02-20T23:19:39.581Z,101361.36
2024-02-20T23:22:06.828Z,101359.31
2024-02-20T23:24:34.001Z,101358.09
2024-02-20T23:27:01.131Z,101360.45
2024-02-20T23:29:29.861Z,101359.34
2024-02-20T23:31:58.262Z,101353.00
2024-02-20T23:34:25.618Z,101353.64
2024-02-20T23:36:52.932Z,101352.31
2024-02-20T23:39:19.979Z,101351.37
2024-02-20T23:41:47.232Z,101348.89
2024-02-20T23:44:14.479Z,101350.31
2024-02-20T23:46:41.574Z,101346.19
2024-02-20T23:49:08.734Z,101346.48
2024-02-20T23:51:35.706Z,101344.20
2024-02-20T23:54:02.986Z,101341.07
2024-02-20T23:56:30.063Z,101338.65
2024-02-20T23:58:57.128Z,101337.33
